This is the latest recevied weather packets stored in our database for station/object KD8UTJ. If no packets are shown the sender has not sent any weather packets the latest 10 day(s).
| Time | Temp. | Humidity | Pressure | Rain* | Wind** | Luminosity | Snow |
|---|---|---|---|---|---|---|---|
| 1777390159 | 26.67° C | 71% | 1022.5 hPa | 0 mm | - | 797 W/m² | - |
| 1777389855 | 26.67° C | 71% | 1022.6 hPa | 0 mm | - | 180 W/m² | - |
| 1777389552 | 27.22° C | 69% | 1022.4 hPa | 0 mm | - | 747 W/m² | - |
| 1777389249 | 26.11° C | 72% | 1022.4 hPa | 0 mm | - | 754 W/m² | - |
| 1777388947 | 26.67° C | 70% | 1022.5 hPa | 0 mm | - | 721 W/m² | - |
| 1777388643 | 26.11° C | 72% | 1022.4 hPa | 0 mm | - | 284 W/m² | - |
| 1777388340 | 26.11° C | 71% | 1022.4 hPa | 0 mm | - | 741 W/m² | - |
| 1777388039 | 27.22° C | 71% | 1022.4 hPa | 0 mm | - | 632 W/m² | - |
| 1777387736 | 26.11° C | 72% | 1022.3 hPa | 0 mm | - | 734 W/m² | - |
| 1777387434 | 25.56° C | 73% | 1022.1 hPa | 0 mm | - | 167 W/m² | - |
| 1777387132 | 26.11° C | 73% | 1022.3 hPa | 0 mm | - | 196 W/m² | - |
| 1777386828 | 25.56° C | 75% | 1022 hPa | 0 mm | - | 662 W/m² | - |
| 1777386525 | 25.56° C | 76% | 1022 hPa | 0 mm | - | 185 W/m² | - |
| 1777386223 | 25.56° C | 73% | 1021.9 hPa | 0 mm | - | 181 W/m² | - |
| 1777385920 | 26.11° C | 73% | 1021.9 hPa | 0 mm | - | 560 W/m² | - |
| 1777385616 | 26.67° C | 73% | 1022 hPa | 0 mm | - | 271 W/m² | - |
| 1777385314 | 26.11° C | 75% | 1021.9 hPa | 0 mm | - | 611 W/m² | - |
| 1777385010 | 26.67° C | 71% | 1021.7 hPa | 0 mm | - | 553 W/m² | - |
| 1777384708 | 26.11° C | 73% | 1021.7 hPa | 0 mm | - | 525 W/m² | - |
| 1777384406 | 26.11° C | 73% | 1021.7 hPa | 0 mm | - | 484 W/m² | - |
| 1777384103 | 25.56° C | 74% | 1021.7 hPa | 0 mm | - | 168 W/m² | - |
| 1777383799 | 25.56° C | 75% | 1021.6 hPa | 0 mm | - | 191 W/m² | - |
| 1777383495 | 25.56° C | 76% | 1021.7 hPa | 0 mm | - | 528 W/m² | - |
| 1777383192 | 25.56° C | 76% | 1021.3 hPa | 0 mm | - | 148 W/m² | - |
| 1777382889 | 25.56° C | 76% | 1021.4 hPa | 0 mm | - | 131 W/m² | - |
* Rain latest hour (hover to see other rain measurements)
** Current wind speed in m/s (hover to see current wind gust speed)